Time;durP1;ratioP1;P1;durP2;ratioP2;P2;SDS_P1;SDS_P2;PMS_P1;PMS_P2;Temp;Humidity;BMP_temperature;BMP_pressure;BME280_temperature;BME280_humidity;BME280_pressure;Samples;Min_cycle;Max_cycle;Signal;HPM_P1;HPM_P2
2023/12/23 00:00:43;;;;;;;0.00;0.00;;;;;;;-145.06;84.25;54990.19;10369856;28;20025;-69
2023/12/23 00:05:43;;;;;;;0.00;0.00;;;;;;;-145.06;84.23;54998.28;10370312;28;20637;-69
2023/12/23 00:10:43;;;;;;;0.00;0.00;;;;;;;-145.06;84.48;54978.03;10369075;28;20026;-69
2023/12/23 00:15:43;;;;;;;0.00;0.00;;;;;;;-145.06;84.05;54998.28;10369850;28;20077;-69
2023/12/23 00:20:44;;;;;;;0.00;0.00;;;;;;;-145.06;86.48;55006.38;10369812;28;20457;-69
2023/12/23 00:25:44;;;;;;;0.00;0.00;;;;;;;-145.06;88.33;54982.06;10370548;28;20022;-69
2023/12/23 00:30:44;;;;;;;0.00;0.00;;;;;;;-145.06;88.68;55002.31;10370103;28;20024;-70
2023/12/23 00:35:45;;;;;;;0.00;0.00;;;;;;;-145.06;89.48;54996.25;10373091;28;20029;-69
2023/12/23 00:40:45;;;;;;;0.00;0.00;;;;;;;-145.06;90.01;54984.09;10372350;28;20018;-69
2023/12/23 00:45:45;;;;;;;0.00;0.00;;;;;;;-145.06;91.02;54984.09;10378987;28;20268;-68
2023/12/23 00:50:46;;;;;;;0.00;0.00;;;;;;;-145.06;92.49;55000.31;10373021;28;20299;-69
2023/12/23 00:55:46;;;;;;;0.00;0.00;;;;;;;-145.06;94.48;54998.28;10373603;28;20026;-69
2023/12/23 01:00:47;;;;;;;0.00;0.00;;;;;;;-145.06;94.78;54963.84;10372635;28;20014;-69
2023/12/23 01:05:47;;;;;;;0.00;0.00;;;;;;;-145.06;94.96;54961.81;10373070;28;20376;-69
2023/12/23 01:10:47;;;;;;;0.00;0.00;;;;;;;-145.06;95.87;54961.81;10372347;28;20022;-70
2023/12/23 01:15:48;;;;;;;0.00;0.00;;;;;;;-145.06;97.06;54990.19;10373126;28;20430;-70
2023/12/23 01:20:48;;;;;;;0.00;0.00;;;;;;;-145.06;96.97;54959.78;10372530;28;20084;-70
2023/12/23 01:25:48;;;;;;;0.00;0.00;;;;;;;-145.06;97.73;54949.66;10370279;28;20080;-70
2023/12/23 01:30:49;;;;;;;0.00;0.00;;;;;;;-145.06;98.30;54982.06;10370484;28;20040;-70
2023/12/23 01:35:49;;;;;;;0.00;0.00;;;;;;;-145.06;100.00;54947.63;10372132;28;20257;-70
2023/12/23 01:40:50;;;;;;;0.00;0.00;;;;;;;-145.06;100.00;54945.59;10370928;28;20021;-69
2023/12/23 01:45:56;;;;;;;0.00;0.00;;;;;;;-145.06;100.00;54939.53;10371506;28;20116;-70
2023/12/23 01:50:56;;;;;;;0.00;0.00;;;;;;;-145.06;100.00;54941.56;10369728;28;20030;-70
2023/12/23 01:55:58;;;;;;;0.00;0.00;;;;;;;-145.06;99.97;54941.56;10371055;28;20018;-69
2023/12/23 02:00:58;;;;;;;0.00;0.00;;;;;;;-145.06;99.74;54935.47;10370733;28;20054;-71
2023/12/23 02:05:59;;;;;;;0.00;0.00;;;;;;;-145.06;99.41;54925.34;10370459;28;20062;-70
2023/12/23 02:11:05;;;;;;;0.00;0.00;;;;;;;-145.06;99.19;54941.56;10369703;28;20527;-70
2023/12/23 02:16:06;;;;;;;0.00;0.00;;;;;;;-145.06;99.56;54933.44;10373031;28;20125;-70
2023/12/23 02:21:06;;;;;;;0.00;0.00;;;;;;;-145.06;99.38;54945.59;10369931;28;20018;-70
2023/12/23 02:26:10;;;;;;;0.00;0.00;;;;;;;-145.06;98.51;54929.41;10369625;28;20022;-70
2023/12/23 02:31:11;;;;;;;0.00;0.00;;;;;;;-145.06;98.54;54925.34;10369809;28;20026;-70
2023/12/23 02:36:11;;;;;;;0.00;0.00;;;;;;;-145.06;99.14;54907.13;10369473;28;20498;-70
2023/12/23 02:41:11;;;;;;;0.00;0.00;;;;;;;-145.06;98.95;54945.59;10368927;28;20010;-70
2023/12/23 02:46:11;;;;;;;0.00;0.00;;;;;;;-145.06;99.46;54925.34;10369214;28;20025;-70
2023/12/23 02:51:12;;;;;;;0.00;0.00;;;;;;;-145.06;100.00;54921.28;10368596;28;20023;-69
2023/12/23 02:56:12;;;;;;;0.00;0.00;;;;;;;-145.06;100.00;54901.03;10368959;28;20052;-70
2023/12/23 03:01:12;;;;;;;0.00;0.00;;;;;;;-145.06;100.00;54913.19;10393677;28;20025;-70
2023/12/23 03:06:16;;;;;;;0.00;0.00;;;;;;;-145.06;97.09;54925.34;10383481;28;20438;-70
2023/12/23 03:11:16;;;;;;;0.00;0.00;;;;;;;-145.06;96.12;54919.28;10392959;28;20762;-69
2023/12/23 03:16:17;;;;;;;0.00;0.00;;;;;;;-145.06;95.97;54923.31;10392836;28;20029;-70
2023/12/23 03:21:22;;;;;;;0.00;0.00;;;;;;;-145.06;95.38;54943.59;10387884;28;20030;-71
2023/12/23 03:26:23;;;;;;;;;;;;;;;-145.06;94.71;54941.56;10388131;28;20033;-70
2023/12/23 03:31:23;;;;;;;0.00;0.00;;;;;;;-145.06;95.55;54880.78;10387248;28;20473;-70
2023/12/23 03:36:23;;;;;;;0.00;0.00;;;;;;;-145.06;95.93;54903.06;10390453;28;20090;-70
2023/12/23 03:41:24;;;;;;;0.00;0.00;;;;;;;-145.06;95.71;54909.16;10391971;28;20032;-71
2023/12/23 03:46:27;;;;;;;0.00;0.00;;;;;;;-145.06;96.31;54909.16;10385956;28;20029;-70
2023/12/23 03:51:27;;;;;;;0.00;0.00;;;;;;;-145.06;96.99;54917.25;10386762;28;20318;-69
2023/12/23 03:56:27;;;;;;;0.00;0.00;;;;;;;-145.06;98.50;54911.16;10387628;28;20078;-69
2023/12/23 04:01:27;;;;;;;0.00;0.00;;;;;;;-145.06;100.00;54872.69;10375157;28;20257;-69
2023/12/23 04:06:28;;;;;;;0.00;0.00;;;;;;;-145.06;100.00;54892.94;10385589;28;20027;-69
2023/12/23 04:11:28;;;;;;;0.00;0.00;;;;;;;-145.06;100.00;54892.94;10392806;28;20022;-69
2023/12/23 04:16:28;;;;;;;0.00;0.00;;;;;;;-145.06;100.00;54905.09;10396788;28;20550;-69
2023/12/23 04:21:29;;;;;;;0.00;0.00;;;;;;;-145.06;98.41;54872.69;10393474;28;20021;-68
2023/12/23 04:26:30;;;;;;;0.00;0.00;;;;;;;-145.06;88.89;54921.28;10393068;28;20048;-69
2023/12/23 04:31:30;;;;;;;0.00;0.00;;;;;;;-145.06;89.15;54913.19;10392596;28;20018;-69
2023/12/23 04:36:31;;;;;;;0.00;0.00;;;;;;;-145.06;94.97;54890.91;10389517;28;20021;-69
2023/12/23 04:41:34;;;;;;;0.00;0.00;;;;;;;-145.06;94.92;54878.75;10393951;28;20280;-69
2023/12/23 04:46:35;;;;;;;0.00;0.00;;;;;;;-145.06;97.19;54874.72;10384003;28;20306;-69
2023/12/23 04:51:35;;;;;;;0.00;0.00;;;;;;;-145.06;99.12;54884.84;10398355;28;20021;-69
2023/12/23 04:56:36;;;;;;;0.00;0.00;;;;;;;-145.06;100.00;54880.78;10382821;28;20032;-69
2023/12/23 05:01:36;;;;;;;0.10;0.10;;;;;;;-145.06;100.00;54844.31;10385541;28;20026;-70
2023/12/23 05:06:37;;;;;;;0.00;0.00;;;;;;;-145.06;100.00;54848.38;10397387;28;20079;-69
2023/12/23 05:11:37;;;;;;;0.00;0.00;;;;;;;-145.06;100.00;54838.25;10392522;28;20390;-70
2023/12/23 05:16:38;;;;;;;0.00;0.00;;;;;;;-145.06;100.00;54850.41;10395754;28;20024;-71
2023/12/23 05:21:38;;;;;;;0.00;0.00;;;;;;;-145.06;100.00;54828.13;10374458;28;20101;-71
2023/12/23 05:26:39;;;;;;;0.00;0.00;;;;;;;-145.06;100.00;54854.44;10393847;28;20083;-70
2023/12/23 05:31:39;;;;;;;0.00;0.00;;;;;;;-145.06;100.00;54852.44;10386760;28;20018;-70
2023/12/23 05:36:39;;;;;;;0.10;0.10;;;;;;;-145.06;100.00;54852.44;10391955;28;20025;-70
2023/12/23 05:41:40;;;;;;;0.00;0.00;;;;;;;-145.06;100.00;54872.69;10387044;28;20543;-70
2023/12/23 05:46:41;;;;;;;0.00;0.00;;;;;;;-145.06;100.00;54870.66;10391403;28;20430;-70
2023/12/23 05:51:41;;;;;;;0.00;0.00;;;;;;;-145.06;100.00;54870.66;10386021;28;20451;-71
2023/12/23 05:56:42;;;;;;;0.00;0.00;;;;;;;-145.06;100.00;54862.56;10391025;28;20017;-70
2023/12/23 06:01:42;;;;;;;0.00;0.00;;;;;;;-145.06;100.00;54836.22;10385877;28;20025;-70
2023/12/23 06:06:42;;;;;;;0.00;0.00;;;;;;;-145.06;100.00;54858.50;10385291;28;20026;-70
2023/12/23 06:11:42;;;;;;;0.00;0.00;;;;;;;-145.06;100.00;54844.31;10380773;28;20018;-71
2023/12/23 06:16:43;;;;;;;0.00;0.00;;;;;;;-145.06;100.00;54850.41;10384701;28;20100;-70
2023/12/23 06:21:46;;;;;;;0.00;0.00;;;;;;;-145.06;100.00;54820.00;10385272;28;20021;-70
2023/12/23 06:26:46;;;;;;;0.00;0.00;;;;;;;-145.06;100.00;54848.38;10389177;28;20017;-70
2023/12/23 06:31:46;;;;;;;0.00;0.00;;;;;;;-145.06;100.00;54834.19;10379376;28;20072;-70
2023/12/23 06:36:47;;;;;;;0.00;0.00;;;;;;;-145.06;100.00;54834.19;10384149;28;20018;-70
2023/12/23 06:41:47;;;;;;;0.00;0.00;;;;;;;-145.06;100.00;54828.13;10388926;28;20017;-70
2023/12/23 06:46:47;;;;;;;0.00;0.00;;;;;;;-145.06;100.00;54803.81;10379053;28;20559;-70
2023/12/23 06:51:48;;;;;;;0.00;0.00;;;;;;;-145.06;100.00;54820.00;10388963;28;20018;-70
2023/12/23 06:56:48;;;;;;;0.00;0.00;;;;;;;-145.06;100.00;54840.28;10383377;28;20028;-70
2023/12/23 07:01:48;;;;;;;0.00;0.00;;;;;;;-145.06;100.00;54813.94;10377313;28;20022;-70
2023/12/23 07:06:50;;;;;;;0.00;0.00;;;;;;;-145.06;100.00;54832.16;10392710;28;20017;-70
2023/12/23 07:11:50;;;;;;;0.00;0.00;;;;;;;-145.06;100.00;54854.44;10383324;28;20064;-70
2023/12/23 07:16:50;;;;;;;0.00;0.00;;;;;;;-145.06;100.00;54840.28;10388126;28;20021;-71
2023/12/23 07:21:53;;;;;;;0.00;0.00;;;;;;;-145.06;100.00;54832.16;10392382;28;20045;-70
2023/12/23 07:26:53;;;;;;;0.00;0.00;;;;;;;-145.06;100.00;54854.44;10386411;28;20029;-70
2023/12/23 07:31:53;;;;;;;0.00;0.00;;;;;;;-145.06;100.00;54840.28;10392676;28;20475;-70
2023/12/23 07:36:54;;;;;;;0.00;0.00;;;;;;;-145.06;100.00;54811.91;10392200;28;20013;-70
2023/12/23 07:41:54;;;;;;;0.00;0.00;;;;;;;-145.06;100.00;54813.94;10382409;28;20018;-70
2023/12/23 07:46:55;;;;;;;0.00;0.00;;;;;;;-145.06;100.00;54834.19;10376490;28;20506;-70
2023/12/23 07:51:56;;;;;;;0.00;0.00;;;;;;;-145.06;100.00;54828.13;10382642;28;20037;-70
2023/12/23 07:56:56;;;;;;;0.00;0.00;;;;;;;-145.06;100.00;54852.44;10376553;28;20475;-70
2023/12/23 08:01:56;;;;;;;0.00;0.00;;;;;;;-145.06;100.00;54832.16;10392296;28;20033;-70
2023/12/23 08:06:57;;;;;;;0.00;0.00;;;;;;;-145.06;100.00;54862.56;10382277;28;20025;-70
2023/12/23 08:11:57;;;;;;;0.00;0.00;;;;;;;-145.06;100.00;54836.22;10391433;28;20466;-70
2023/12/23 08:16:58;;;;;;;0.10;0.10;;;;;;;-145.06;100.00;54844.31;10391338;28;20025;-70
2023/12/23 08:21:58;;;;;;;0.00;0.00;;;;;;;-145.06;100.00;54820.00;10381938;28;20441;-70
2023/12/23 08:26:59;;;;;;;0.00;0.00;;;;;;;-145.06;100.00;54820.00;10381712;28;20026;-70
2023/12/23 08:32:00;;;;;;;0.00;0.00;;;;;;;-145.06;100.00;54832.16;10390950;28;20288;-70
2023/12/23 08:37:00;;;;;;;0.00;0.00;;;;;;;-145.06;100.00;54828.13;10390937;28;20418;-70
2023/12/23 08:42:00;;;;;;;0.00;0.00;;;;;;;-145.06;100.00;54836.22;10386157;28;20700;-70
2023/12/23 08:47:01;;;;;;;0.00;0.00;;;;;;;-145.06;100.00;54813.94;10389444;28;20123;-70
2023/12/23 08:52:01;;;;;;;0.00;0.00;;;;;;;-145.06;100.00;54828.13;10390763;28;20276;-70
2023/12/23 08:57:02;;;;;;;0.00;0.00;;;;;;;-145.06;100.00;54813.94;10386067;28;20034;-70
2023/12/23 09:02:03;;;;;;;0.00;0.00;;;;;;;-145.06;100.00;54803.81;10387009;28;20040;-70
2023/12/23 09:07:04;;;;;;;0.00;0.00;;;;;;;-145.06;100.00;54830.16;10392897;28;20042;-70
2023/12/23 09:12:05;;;;;;;0.00;0.00;;;;;;;-145.06;100.00;54787.59;10393090;28;20034;-70
2023/12/23 09:17:06;;;;;;;0.00;0.00;;;;;;;-145.06;100.00;54805.84;10381731;28;20041;-71
2023/12/23 09:22:07;;;;;;;0.00;0.00;;;;;;;-145.06;100.00;54799.75;10374152;28;20108;-71
2023/12/23 09:27:07;;;;;;;0.00;0.00;;;;;;;-145.06;100.00;54787.59;10381219;28;20475;-71
2023/12/23 09:32:07;;;;;;;0.00;0.00;;;;;;;-145.06;100.00;54787.59;10378961;28;20026;-70
2023/12/23 09:37:08;;;;;;;0.00;0.00;;;;;;;-145.06;100.00;54787.59;10380430;28;20022;-71
2023/12/23 09:42:10;;;;;;;0.00;0.00;;;;;;;-145.06;100.00;54763.31;10382864;28;20596;-71
2023/12/23 09:47:10;;;;;;;0.00;0.00;;;;;;;-145.06;100.00;54777.47;10382828;28;20038;-70
2023/12/23 09:52:12;;;;;;;0.00;0.00;;;;;;;-145.06;100.00;54775.44;10382426;28;20033;-70
2023/12/23 09:57:12;;;;;;;0.00;0.00;;;;;;;-145.06;100.00;54755.19;10376328;28;20026;-71
2023/12/23 10:02:12;;;;;;;0.00;0.00;;;;;;;-145.06;100.00;54763.31;10379138;28;20395;-71
2023/12/23 10:07:14;;;;;;;0.00;0.00;;;;;;;-145.06;100.00;54741.03;10377330;28;20323;-69
2023/12/23 10:12:15;;;;;;;0.00;0.00;;;;;;;-145.06;100.00;54732.91;10378310;28;20040;-71
2023/12/23 10:17:17;;;;;;;0.00;0.00;;;;;;;-145.06;100.00;54751.16;10379705;28;20032;-71
2023/12/23 10:22:17;;;;;;;0.00;0.00;;;;;;;-145.06;100.00;54736.97;10380724;28;20017;-70
2023/12/23 10:27:18;;;;;;;0.00;0.00;;;;;;;-145.06;100.00;54718.72;10379207;28;20471;-71
2023/12/23 10:32:27;;;;;;;0.00;0.00;;;;;;;-145.06;100.00;54722.78;10376496;28;20291;-71
2023/12/23 10:37:29;;;;;;;0.03;0.03;;;;;;;-145.06;100.00;54730.88;10380143;28;20022;-70
2023/12/23 10:42:31;;;;;;;0.00;0.00;;;;;;;-145.06;100.00;54714.69;10381049;28;20046;-71
2023/12/23 10:47:33;;;;;;;0.00;0.00;;;;;;;-145.06;100.00;54736.97;10372092;28;20053;-71
2023/12/23 10:52:35;;;;;;;0.00;0.00;;;;;;;-145.06;100.00;54749.13;10380606;28;20380;-71
2023/12/23 10:57:37;;;;;;;0.00;0.00;;;;;;;-145.06;100.00;54743.03;10379312;28;20101;-71
2023/12/23 11:02:38;;;;;;;0.10;0.10;;;;;;;-145.06;100.00;54732.91;10379623;28;20020;-69
2023/12/23 11:07:45;;;;;;;0.00;0.00;;;;;;;-145.06;100.00;54763.31;10378906;28;20022;-69
2023/12/23 11:12:47;;;;;;;0.00;0.00;;;;;;;-145.06;100.00;54743.03;10379440;28;20391;-69
2023/12/23 11:17:47;;;;;;;0.00;0.00;;;;;;;-145.06;100.00;54743.03;10378236;28;20478;-69
2023/12/23 11:22:48;;;;;;;0.00;0.00;;;;;;;-145.06;100.00;54747.09;10376731;28;20009;-69
2023/12/23 11:27:48;;;;;;;0.00;0.00;;;;;;;-145.06;100.00;54739.00;10378415;28;20021;-69
2023/12/23 11:32:49;;;;;;;0.00;0.00;;;;;;;-145.06;100.00;54718.72;10376741;28;20040;-69
2023/12/23 11:37:54;;;;;;;0.00;0.00;;;;;;;-145.06;100.00;54720.75;10375632;28;20021;-69
2023/12/23 11:42:55;;;;;;;;;;;;;;;-145.06;100.00;54743.03;10375205;28;20104;-69
2023/12/23 11:47:56;;;;;;;0.00;0.00;;;;;;;-145.06;100.00;54741.03;10378164;28;20335;-69
2023/12/23 11:52:56;;;;;;;0.00;0.00;;;;;;;-145.06;100.00;54734.94;10376335;28;20033;-68
2023/12/23 11:57:57;;;;;;;0.00;0.00;;;;;;;-145.06;100.00;54716.72;10375732;28;20025;-69
2023/12/23 12:02:57;;;;;;;0.00;0.00;;;;;;;-145.06;100.00;54722.78;10377942;28;20398;-69
2023/12/23 12:07:58;;;;;;;0.00;0.00;;;;;;;-145.06;100.00;54747.09;10373045;28;20025;-69
2023/12/23 12:12:59;;;;;;;0.00;0.00;;;;;;;-145.06;100.00;54710.63;10377733;28;20084;-69
2023/12/23 12:17:59;;;;;;;0.00;0.00;;;;;;;-145.06;100.00;54702.53;10377233;28;20022;-69
2023/12/23 12:23:01;;;;;;;0.00;0.00;;;;;;;-145.06;100.00;54722.78;10375621;28;20051;-69
2023/12/23 12:28:02;;;;;;;0.00;0.00;;;;;;;-145.06;100.00;54720.75;10377358;28;20056;-69
2023/12/23 12:33:02;;;;;;;0.00;0.00;;;;;;;-145.06;100.00;54726.84;10379757;28;20038;-69
2023/12/23 12:38:03;;;;;;;0.00;0.00;;;;;;;-145.06;100.00;54674.19;10384410;28;20025;-70
2023/12/23 12:43:07;;;;;;;0.00;0.00;;;;;;;-145.06;100.00;54728.88;10385310;28;20052;-69
2023/12/23 12:48:12;;;;;;;0.00;0.00;;;;;;;-145.06;100.00;54680.25;10383429;28;20420;-69
2023/12/23 12:53:15;;;;;;;0.00;0.00;;;;;;;-145.06;100.00;54724.81;10384697;28;20030;-69
2023/12/23 12:58:16;;;;;;;0.00;0.00;;;;;;;-145.06;100.00;54686.31;10384350;28;20025;-69
2023/12/23 13:03:16;;;;;;;0.00;0.00;;;;;;;-145.06;100.00;54698.47;10381104;28;20113;-70
2023/12/23 13:08:17;;;;;;;0.08;0.08;;;;;;;-145.06;100.00;54694.44;10384027;28;20105;-69
2023/12/23 13:13:17;;;;;;;0.00;0.00;;;;;;;-145.06;100.00;54712.66;10383752;28;20046;-69
2023/12/23 13:18:18;;;;;;;0.00;0.00;;;;;;;-145.06;100.00;54692.41;10383132;28;20018;-69
2023/12/23 13:23:18;;;;;;;0.00;0.00;;;;;;;-145.06;100.00;54684.31;10383491;28;20591;-69
2023/12/23 13:28:18;;;;;;;0.00;0.00;;;;;;;-145.06;100.00;54710.63;10380704;28;20014;-70
2023/12/23 13:33:18;;;;;;;0.00;0.00;;;;;;;-145.06;100.00;54682.28;10383180;28;20017;-69
2023/12/23 13:38:19;;;;;;;0.00;0.00;;;;;;;-145.06;100.00;54710.63;10380154;28;20018;-69
2023/12/23 13:43:19;;;;;;;0.00;0.00;;;;;;;-145.06;100.00;54708.59;10380305;28;20360;-69
2023/12/23 13:48:21;;;;;;;0.00;0.00;;;;;;;-145.06;100.00;54716.72;10381260;28;20021;-69
2023/12/23 13:53:21;;;;;;;0.00;0.00;;;;;;;-145.06;100.00;54718.72;10380258;28;20022;-69
2023/12/23 13:58:22;;;;;;;0.00;0.00;;;;;;;-145.06;100.00;54712.66;10379427;28;20049;-69
2023/12/23 14:03:22;;;;;;;0.00;0.00;;;;;;;-145.06;100.00;54726.84;10379192;28;20028;-69
2023/12/23 14:08:22;;;;;;;0.00;0.00;;;;;;;-145.06;100.00;54682.28;10381019;28;20273;-69
2023/12/23 14:13:23;;;;;;;0.00;0.00;;;;;;;-145.06;100.00;54706.59;10381264;28;20018;-69
2023/12/23 14:18:23;;;;;;;0.10;0.10;;;;;;;-145.06;100.00;54674.19;10378521;28;20480;-69
2023/12/23 14:23:23;;;;;;;0.00;0.00;;;;;;;-145.06;100.00;54724.81;10377262;28;20014;-69
2023/12/23 14:28:24;;;;;;;0.00;0.00;;;;;;;-145.06;100.00;54690.38;10380103;28;20020;-69
2023/12/23 14:33:24;;;;;;;0.00;0.00;;;;;;;-145.06;100.00;54690.38;10378563;28;20013;-69
2023/12/23 14:38:26;;;;;;;0.00;0.00;;;;;;;-145.06;100.00;54694.44;10378030;28;20264;-69
2023/12/23 14:43:27;;;;;;;0.00;0.00;;;;;;;-145.06;100.00;54700.50;10378036;28;20014;-69
2023/12/23 14:48:27;;;;;;;0.00;0.00;;;;;;;-145.06;100.00;54702.53;10376459;28;20518;-69
2023/12/23 14:53:27;;;;;;;0.00;0.00;;;;;;;-145.06;100.00;54704.56;10380250;28;20052;-69
2023/12/23 14:58:28;;;;;;;0.00;0.00;;;;;;;-145.06;100.00;54670.13;10379122;28;20021;-69
2023/12/23 15:03:28;;;;;;;0.00;0.00;;;;;;;-145.06;100.00;54698.47;10379994;28;20105;-69
2023/12/23 15:08:28;;;;;;;0.00;0.00;;;;;;;-145.06;100.00;54688.34;10378694;28;20021;-69
2023/12/23 15:13:35;;;;;;;0.00;0.00;;;;;;;-145.06;100.00;54702.53;10379260;28;20284;-69
2023/12/23 15:18:35;;;;;;;0.00;0.00;;;;;;;-145.06;100.00;54712.66;10378254;28;20025;-69
2023/12/23 15:23:35;;;;;;;0.00;0.00;;;;;;;-145.06;100.00;54694.44;10376904;28;20067;-69
2023/12/23 15:28:37;;;;;;;0.00;0.00;;;;;;;-145.06;100.00;54696.44;10378188;28;20257;-69
2023/12/23 15:33:37;;;;;;;0.00;0.00;;;;;;;-145.06;100.00;54710.63;10372984;28;20029;-69
2023/12/23 15:38:37;;;;;;;0.00;0.00;;;;;;;-145.06;100.00;54692.41;10378005;28;20475;-69
2023/12/23 15:43:38;;;;;;;0.00;0.00;;;;;;;-145.06;100.00;54720.75;10376823;28;20347;-69
2023/12/23 15:48:38;;;;;;;0.00;0.00;;;;;;;-145.06;100.00;54682.28;10377732;28;20017;-69
2023/12/23 15:53:40;;;;;;;0.00;0.00;;;;;;;-145.06;100.00;54724.81;10376022;28;20022;-69
2023/12/23 15:58:40;;;;;;;0.00;0.00;;;;;;;-145.06;100.00;54732.91;10373891;28;20026;-69
2023/12/23 16:03:41;;;;;;;0.00;0.00;;;;;;;-145.06;100.00;54696.44;10378895;28;20456;-69
2023/12/23 16:08:41;;;;;;;0.00;0.00;;;;;;;-145.06;100.00;54702.53;10380580;28;20052;-69
2023/12/23 16:13:43;;;;;;;0.10;0.10;;;;;;;-145.06;100.00;54716.72;10386018;28;20025;-69
2023/12/23 16:18:43;;;;;;;0.00;0.00;;;;;;;-145.06;100.00;54716.72;10381037;28;20048;-69
2023/12/23 16:23:45;;;;;;;0.00;0.00;;;;;;;-145.06;100.00;54728.88;10383494;28;20057;-68
2023/12/23 16:28:45;;;;;;;0.00;0.00;;;;;;;-145.06;100.00;54718.72;10378629;28;20091;-69
2023/12/23 16:33:46;;;;;;;0.10;0.10;;;;;;;-145.06;100.00;54728.88;10385134;28;20025;-69
2023/12/23 16:38:46;;;;;;;0.00;0.00;;;;;;;-145.06;100.00;54684.31;10379070;28;20319;-69
2023/12/23 16:43:47;;;;;;;0.00;0.00;;;;;;;-145.06;100.00;54700.50;10384414;28;20032;-69
2023/12/23 16:48:47;;;;;;;0.00;0.00;;;;;;;-145.06;100.00;54718.72;10382773;28;20380;-69
2023/12/23 16:53:47;;;;;;;0.00;0.00;;;;;;;-145.06;100.00;54710.63;10380996;28;20046;-69
2023/12/23 16:58:50;;;;;;;0.00;0.00;;;;;;;-145.06;100.00;54714.69;10383746;28;20029;-69
2023/12/23 17:03:50;;;;;;;0.00;0.00;;;;;;;-145.06;100.00;54726.84;10381912;28;20068;-69
2023/12/23 17:08:50;;;;;;;0.08;0.08;;;;;;;-145.06;100.00;54720.75;10383297;28;20048;-69
2023/12/23 17:13:50;;;;;;;0.00;0.00;;;;;;;-145.06;100.00;54730.88;10381217;28;20300;-69
2023/12/23 17:18:51;;;;;;;0.00;0.00;;;;;;;-145.06;100.00;54724.81;10383128;28;20021;-70
2023/12/23 17:23:51;;;;;;;0.00;0.00;;;;;;;-145.06;100.00;54710.63;10383000;28;20053;-69
2023/12/23 17:28:51;;;;;;;0.00;0.00;;;;;;;-145.06;100.00;54734.94;10374019;28;20121;-69
2023/12/23 17:33:51;;;;;;;0.00;0.00;;;;;;;-145.06;100.00;54708.59;10372601;28;20259;-69
2023/12/23 17:38:52;;;;;;;0.00;0.00;;;;;;;-145.06;100.00;54739.00;10371650;28;20303;-69
2023/12/23 17:43:52;;;;;;;0.00;0.00;;;;;;;-145.06;100.00;54722.78;10372102;28;20024;-70
2023/12/23 17:48:52;;;;;;;0.00;0.00;;;;;;;-145.06;100.00;54722.78;10371185;28;20028;-69
2023/12/23 17:53:53;;;;;;;0.00;0.00;;;;;;;-145.06;100.00;54716.72;10369215;28;20285;-69
2023/12/23 17:58:53;;;;;;;0.00;0.00;;;;;;;-145.06;100.00;54716.72;10371165;28;20451;-69
2023/12/23 18:03:53;;;;;;;0.10;0.10;;;;;;;-145.06;100.00;54728.88;10370607;28;20017;-69
2023/12/23 18:08:54;;;;;;;0.00;0.00;;;;;;;-145.06;100.00;54726.84;10370361;28;20021;-69
2023/12/23 18:13:54;;;;;;;0.00;0.00;;;;;;;-145.06;100.00;54696.44;10368785;28;20038;-69
2023/12/23 18:18:54;;;;;;;0.00;0.00;;;;;;;-145.06;100.00;54734.94;10370683;28;20022;-69
2023/12/23 18:23:55;;;;;;;0.00;0.00;;;;;;;-145.06;100.00;54702.53;10370275;28;20025;-69
2023/12/23 18:28:55;;;;;;;0.00;0.00;;;;;;;-145.06;100.00;54706.59;10370231;28;20034;-69
2023/12/23 18:33:55;;;;;;;0.00;0.00;;;;;;;-145.06;100.00;54734.94;10369343;28;20079;-69
2023/12/23 18:38:55;;;;;;;0.00;0.00;;;;;;;-145.06;100.00;54694.44;10369279;28;20501;-69
2023/12/23 18:43:56;;;;;;;0.00;0.00;;;;;;;-145.06;100.00;54718.72;10369711;28;20380;-69
2023/12/23 18:48:56;;;;;;;0.00;0.00;;;;;;;-145.06;100.00;54741.03;10368752;28;20546;-69
2023/12/23 18:53:57;;;;;;;0.00;0.00;;;;;;;-145.06;100.00;54714.69;10369548;28;20026;-69
2023/12/23 18:58:57;;;;;;;0.00;0.00;;;;;;;-145.06;100.00;54714.69;10368595;28;20022;-69
2023/12/23 19:03:57;;;;;;;0.00;0.00;;;;;;;-145.06;100.00;54722.78;10368719;28;20029;-69
2023/12/23 19:08:58;;;;;;;0.00;0.00;;;;;;;-145.06;100.00;54714.69;10374610;28;20269;-69
2023/12/23 19:13:58;;;;;;;0.00;0.00;;;;;;;-145.06;100.00;54720.75;10368988;28;20506;-69
2023/12/23 19:18:58;;;;;;;0.00;0.00;;;;;;;-145.06;100.00;54743.03;10367985;28;20079;-69
2023/12/23 19:23:59;;;;;;;0.00;0.00;;;;;;;-145.06;100.00;54706.59;10368477;28;20260;-69
2023/12/23 19:28:59;;;;;;;0.00;0.00;;;;;;;-145.06;100.00;54718.72;10367292;28;20080;-69
2023/12/23 19:34:00;;;;;;;0.00;0.00;;;;;;;-145.06;100.00;54722.78;10366769;28;20076;-69
2023/12/23 19:39:00;;;;;;;0.00;0.00;;;;;;;-145.06;100.00;54714.69;10367534;28;20443;-69
2023/12/23 19:44:00;;;;;;;0.10;0.10;;;;;;;-145.06;100.00;54728.88;10365877;28;20018;-69
2023/12/23 19:49:01;;;;;;;0.00;0.00;;;;;;;-145.06;100.00;54736.97;10367202;28;20029;-69
2023/12/23 19:54:01;;;;;;;0.00;0.00;;;;;;;-145.06;100.00;54714.69;10367292;28;20030;-69
2023/12/23 19:59:03;;;;;;;0.00;0.00;;;;;;;-145.06;100.00;54736.97;10367375;28;20026;-69
2023/12/23 20:04:03;;;;;;;0.00;0.00;;;;;;;-145.06;100.00;54724.81;10367184;28;20044;-69
2023/12/23 20:09:04;;;;;;;0.00;0.00;;;;;;;-145.06;100.00;54718.72;10366475;28;20037;-69
2023/12/23 20:14:04;;;;;;;0.00;0.00;;;;;;;-145.06;100.00;54732.91;10365801;28;20038;-69
2023/12/23 20:19:04;;;;;;;0.00;0.00;;;;;;;-145.06;100.00;54724.81;10366322;28;20383;-69
2023/12/23 20:24:07;;;;;;;0.00;0.00;;;;;;;-145.06;100.00;54734.94;10366905;28;20033;-69
2023/12/23 20:29:07;;;;;;;0.00;0.00;;;;;;;-145.06;100.00;54730.88;10366186;28;20268;-69
2023/12/23 20:34:09;;;;;;;0.00;0.00;;;;;;;-145.06;100.00;54708.59;10366822;28;20365;-69
2023/12/23 20:39:09;;;;;;;0.00;0.00;;;;;;;-145.06;100.00;54734.94;10363328;28;20264;-70
2023/12/23 20:44:11;;;;;;;0.00;0.00;;;;;;;-145.06;100.00;54747.09;10366694;28;20030;-69
2023/12/23 20:49:11;;;;;;;0.00;0.00;;;;;;;-145.06;100.00;54747.09;10364807;28;20503;-69
2023/12/23 20:54:12;;;;;;;0.00;0.00;;;;;;;-145.06;100.00;54753.16;10368407;28;20026;-69
2023/12/23 20:59:12;;;;;;;0.10;0.10;;;;;;;-145.06;100.00;54736.97;10373176;28;20352;-69
2023/12/23 21:04:12;;;;;;;0.00;0.00;;;;;;;-145.06;100.00;54751.16;10373451;28;20022;-69
2023/12/23 21:09:13;;;;;;;0.00;0.00;;;;;;;-145.06;100.00;54771.41;10372927;28;20281;-69
2023/12/23 21:14:13;;;;;;;0.00;0.00;;;;;;;-145.06;100.00;54759.25;10373223;28;20299;-69
2023/12/23 21:19:13;;;;;;;0.00;0.00;;;;;;;-145.06;100.00;54718.72;10372491;28;20118;-69
2023/12/23 21:24:14;;;;;;;0.10;0.10;;;;;;;-145.06;100.00;54761.28;10372866;28;20030;-69
2023/12/23 21:29:14;;;;;;;0.00;0.00;;;;;;;-145.06;100.00;54759.25;10371922;28;20048;-69
2023/12/23 21:34:15;;;;;;;0.00;0.00;;;;;;;-145.06;100.00;54722.78;10371985;28;20033;-69
2023/12/23 21:39:16;;;;;;;0.00;0.00;;;;;;;-145.06;100.00;54759.25;10369145;28;20067;-69
2023/12/23 21:44:17;;;;;;;0.10;0.10;;;;;;;-145.06;100.00;54730.88;10369828;28;20025;-70
2023/12/23 21:49:17;;;;;;;0.00;0.00;;;;;;;-145.06;100.00;54777.47;10369058;28;20034;-70
2023/12/23 21:54:17;;;;;;;0.00;0.00;;;;;;;-145.06;100.00;54751.16;10370950;28;20018;-69
2023/12/23 21:59:18;;;;;;;0.00;0.00;;;;;;;-145.06;100.00;54745.06;10370519;28;20101;-69
2023/12/23 22:04:18;;;;;;;0.00;0.00;;;;;;;-145.06;100.00;54789.63;10370708;28;20022;-69
2023/12/23 22:09:18;;;;;;;0.00;0.00;;;;;;;-145.06;100.00;54730.88;10369763;28;20040;-69
2023/12/23 22:14:18;;;;;;;0.00;0.00;;;;;;;-145.06;100.00;54767.34;10371087;28;20048;-69
2023/12/23 22:19:19;;;;;;;0.00;0.00;;;;;;;-145.06;100.00;54799.75;10375525;28;20026;-69
2023/12/23 22:24:19;;;;;;;0.00;0.00;;;;;;;-145.06;100.00;54759.25;10370669;28;20634;-69
2023/12/23 22:29:19;;;;;;;0.00;0.00;;;;;;;-145.06;100.00;54755.19;10369887;28;20112;-69
2023/12/23 22:34:19;;;;;;;0.00;0.00;;;;;;;-145.06;100.00;54811.91;10369883;28;20030;-69